sensor_id;sensor_type;location;lat;lon;timestamp;noise_LAeq;noise_LA_min;noise_LA_max;noise_LA01;noise_LA95
36217;Laerm;22259;48.792;8.964;2023-09-07T00:01:32;61.44;60.26;62.50;;
36217;Laerm;22259;48.792;8.964;2023-09-07T00:03:58;61.45;60.25;62.58;;
36217;Laerm;22259;48.792;8.964;2023-09-07T00:06:23;61.44;60.15;62.73;;
36217;Laerm;22259;48.792;8.964;2023-09-07T00:08:49;61.42;60.19;62.64;;
36217;Laerm;22259;48.792;8.964;2023-09-07T00:11:15;61.44;60.15;62.55;;
36217;Laerm;22259;48.792;8.964;2023-09-07T00:13:40;61.45;60.24;62.46;;
36217;Laerm;22259;48.792;8.964;2023-09-07T00:16:06;61.45;60.19;62.69;;
36217;Laerm;22259;48.792;8.964;2023-09-07T00:18:31;61.48;60.26;62.71;;
36217;Laerm;22259;48.792;8.964;2023-09-07T00:20:58;61.47;60.21;62.64;;
36217;Laerm;22259;48.792;8.964;2023-09-07T00:23:23;61.46;60.06;62.64;;
36217;Laerm;22259;48.792;8.964;2023-09-07T00:25:49;61.44;60.30;62.53;;
36217;Laerm;22259;48.792;8.964;2023-09-07T00:28:14;61.42;60.10;62.48;;
36217;Laerm;22259;48.792;8.964;2023-09-07T00:30:39;61.41;60.28;62.75;;
36217;Laerm;22259;48.792;8.964;2023-09-07T00:33:06;61.44;60.01;62.64;;
36217;Laerm;22259;48.792;8.964;2023-09-07T00:35:31;61.48;60.29;62.64;;
36217;Laerm;22259;48.792;8.964;2023-09-07T00:37:56;61.55;60.36;62.73;;
36217;Laerm;22259;48.792;8.964;2023-09-07T00:40:22;61.62;60.36;62.71;;
36217;Laerm;22259;48.792;8.964;2023-09-07T00:42:48;61.71;60.22;62.84;;
36217;Laerm;22259;48.792;8.964;2023-09-07T00:45:13;61.76;60.39;62.86;;
36217;Laerm;22259;48.792;8.964;2023-09-07T00:47:38;61.83;60.70;62.98;;
36217;Laerm;22259;48.792;8.964;2023-09-07T00:50:05;61.86;60.63;62.97;;
36217;Laerm;22259;48.792;8.964;2023-09-07T00:52:31;61.88;60.55;63.04;;
36217;Laerm;22259;48.792;8.964;2023-09-07T00:54:57;61.89;60.41;63.07;;
36217;Laerm;22259;48.792;8.964;2023-09-07T00:57:23;61.88;60.57;62.99;;
36217;Laerm;22259;48.792;8.964;2023-09-07T00:59:49;61.87;60.61;63.09;;
36217;Laerm;22259;48.792;8.964;2023-09-07T01:08:23;61.83;60.60;62.95;;
36217;Laerm;22259;48.792;8.964;2023-09-07T01:10:50;61.80;60.73;62.90;;
36217;Laerm;22259;48.792;8.964;2023-09-07T01:13:15;61.79;60.58;62.80;;
36217;Laerm;22259;48.792;8.964;2023-09-07T01:15:40;61.78;60.47;62.97;;
36217;Laerm;22259;48.792;8.964;2023-09-07T01:18:06;61.77;60.51;62.89;;
36217;Laerm;22259;48.792;8.964;2023-09-07T01:20:33;61.76;60.69;62.87;;
36217;Laerm;22259;48.792;8.964;2023-09-07T01:23:00;61.73;60.68;62.79;;
36217;Laerm;22259;48.792;8.964;2023-09-07T01:25:25;61.74;60.46;62.79;;
36217;Laerm;22259;48.792;8.964;2023-09-07T01:27:53;61.73;60.66;62.75;;
36217;Laerm;22259;48.792;8.964;2023-09-07T01:30:18;61.73;60.40;62.93;;
36217;Laerm;22259;48.792;8.964;2023-09-07T01:32:44;61.72;60.39;62.80;;
36217;Laerm;22259;48.792;8.964;2023-09-07T01:35:09;61.72;60.45;62.69;;
36217;Laerm;22259;48.792;8.964;2023-09-07T01:37:36;61.71;60.43;62.86;;
36217;Laerm;22259;48.792;8.964;2023-09-07T01:40:01;61.72;60.44;62.84;;
36217;Laerm;22259;48.792;8.964;2023-09-07T01:42:29;61.72;60.56;62.86;;
36217;Laerm;22259;48.792;8.964;2023-09-07T01:44:54;61.71;60.49;63.03;;
36217;Laerm;22259;48.792;8.964;2023-09-07T01:47:20;61.70;60.54;62.90;;
36217;Laerm;22259;48.792;8.964;2023-09-07T01:49:45;61.69;60.31;62.74;;
36217;Laerm;22259;48.792;8.964;2023-09-07T01:52:10;61.68;60.50;62.69;;
36217;Laerm;22259;48.792;8.964;2023-09-07T01:54:36;61.67;60.57;62.78;;
36217;Laerm;22259;48.792;8.964;2023-09-07T01:57:01;61.65;60.52;62.75;;
36217;Laerm;22259;48.792;8.964;2023-09-07T01:59:27;61.65;60.32;62.78;;
36217;Laerm;22259;48.792;8.964;2023-09-07T02:01:53;61.63;60.53;62.85;;
36217;Laerm;22259;48.792;8.964;2023-09-07T02:04:18;61.64;60.35;62.69;;
36217;Laerm;22259;48.792;8.964;2023-09-07T02:06:43;61.65;60.48;62.82;;
36217;Laerm;22259;48.792;8.964;2023-09-07T02:09:09;61.69;60.47;62.87;;
36217;Laerm;22259;48.792;8.964;2023-09-07T02:11:34;61.70;60.53;62.76;;
36217;Laerm;22259;48.792;8.964;2023-09-07T02:14:00;61.72;60.38;62.72;;
36217;Laerm;22259;48.792;8.964;2023-09-07T02:16:25;61.72;60.25;62.88;;
36217;Laerm;22259;48.792;8.964;2023-09-07T02:18:59;61.71;60.55;62.86;;
36217;Laerm;22259;48.792;8.964;2023-09-07T02:21:25;61.72;60.57;63.12;;
36217;Laerm;22259;48.792;8.964;2023-09-07T02:23:51;61.72;60.60;62.91;;
36217;Laerm;22259;48.792;8.964;2023-09-07T02:26:16;61.70;60.40;62.64;;
36217;Laerm;22259;48.792;8.964;2023-09-07T02:28:41;61.69;60.64;62.87;;
36217;Laerm;22259;48.792;8.964;2023-09-07T02:31:07;61.67;60.25;62.72;;
36217;Laerm;22259;48.792;8.964;2023-09-07T02:33:33;61.64;60.58;62.76;;
36217;Laerm;22259;48.792;8.964;2023-09-07T02:35:58;61.62;60.46;62.56;;
36217;Laerm;22259;48.792;8.964;2023-09-07T02:38:24;61.60;60.49;62.61;;
36217;Laerm;22259;48.792;8.964;2023-09-07T02:40:49;61.56;60.45;62.60;;
36217;Laerm;22259;48.792;8.964;2023-09-07T02:43:15;61.54;60.37;62.60;;
36217;Laerm;22259;48.792;8.964;2023-09-07T02:45:41;61.48;60.25;62.59;;
36217;Laerm;22259;48.792;8.964;2023-09-07T02:48:06;61.45;59.91;62.48;;
36217;Laerm;22259;48.792;8.964;2023-09-07T02:50:32;61.41;60.25;62.51;;
36217;Laerm;22259;48.792;8.964;2023-09-07T02:52:58;61.34;59.83;62.45;;
36217;Laerm;22259;48.792;8.964;2023-09-07T02:55:23;61.29;60.10;62.25;;
36217;Laerm;22259;48.792;8.964;2023-09-07T02:57:49;61.30;59.85;62.32;;
36217;Laerm;22259;48.792;8.964;2023-09-07T03:00:14;61.30;59.93;62.51;;
36217;Laerm;22259;48.792;8.964;2023-09-07T03:02:42;61.32;60.18;62.37;;
36217;Laerm;22259;48.792;8.964;2023-09-07T03:05:08;61.35;60.24;62.48;;
36217;Laerm;22259;48.792;8.964;2023-09-07T03:07:33;61.36;60.12;62.45;;
36217;Laerm;22259;48.792;8.964;2023-09-07T03:09:59;61.37;60.23;62.48;;
36217;Laerm;22259;48.792;8.964;2023-09-07T03:12:24;61.36;60.28;62.41;;
36217;Laerm;22259;48.792;8.964;2023-09-07T03:14:49;61.39;60.14;62.33;;
36217;Laerm;22259;48.792;8.964;2023-09-07T03:17:16;61.39;60.23;62.46;;
36217;Laerm;22259;48.792;8.964;2023-09-07T03:19:41;61.39;59.97;62.36;;
36217;Laerm;22259;48.792;8.964;2023-09-07T03:22:07;61.41;59.87;62.48;;
36217;Laerm;22259;48.792;8.964;2023-09-07T03:24:34;61.44;60.29;62.58;;
36217;Laerm;22259;48.792;8.964;2023-09-07T03:26:59;61.49;60.16;62.63;;
36217;Laerm;22259;48.792;8.964;2023-09-07T03:29:24;61.53;60.30;62.54;;
36217;Laerm;22259;48.792;8.964;2023-09-07T03:31:50;61.58;60.32;62.73;;
36217;Laerm;22259;48.792;8.964;2023-09-07T03:34:15;61.62;60.27;62.66;;
36217;Laerm;22259;48.792;8.964;2023-09-07T03:36:41;61.67;60.55;62.85;;
36217;Laerm;22259;48.792;8.964;2023-09-07T03:39:06;61.72;60.62;62.92;;
36217;Laerm;22259;48.792;8.964;2023-09-07T03:41:33;61.76;60.59;62.95;;
36217;Laerm;22259;48.792;8.964;2023-09-07T03:43:59;61.78;60.69;62.91;;
36217;Laerm;22259;48.792;8.964;2023-09-07T03:46:24;61.81;60.60;62.94;;
36217;Laerm;22259;48.792;8.964;2023-09-07T03:48:51;61.84;60.51;63.07;;
36217;Laerm;22259;48.792;8.964;2023-09-07T03:51:16;61.85;60.70;63.02;;
36217;Laerm;22259;48.792;8.964;2023-09-07T03:53:41;61.87;60.82;62.93;;
36217;Laerm;22259;48.792;8.964;2023-09-07T03:56:07;61.87;60.74;62.93;;
36217;Laerm;22259;48.792;8.964;2023-09-07T03:58:32;61.88;60.72;63.04;;
36217;Laerm;22259;48.792;8.964;2023-09-07T04:01:00;61.88;60.55;63.01;;
36217;Laerm;22259;48.792;8.964;2023-09-07T04:03:26;61.86;60.68;62.87;;
36217;Laerm;22259;48.792;8.964;2023-09-07T04:05:51;61.81;60.56;62.80;;
36217;Laerm;22259;48.792;8.964;2023-09-07T04:08:16;61.77;60.62;63.02;;
36217;Laerm;22259;48.792;8.964;2023-09-07T04:10:42;61.69;60.59;62.78;;
36217;Laerm;22259;48.792;8.964;2023-09-07T04:13:07;61.62;60.39;62.88;;
36217;Laerm;22259;48.792;8.964;2023-09-07T04:15:33;61.55;60.27;62.66;;
36217;Laerm;22259;48.792;8.964;2023-09-07T04:17:59;61.49;60.37;62.56;;
36217;Laerm;22259;48.792;8.964;2023-09-07T04:20:24;61.45;60.16;62.55;;
36217;Laerm;22259;48.792;8.964;2023-09-07T04:22:51;61.43;60.09;62.66;;
36217;Laerm;22259;48.792;8.964;2023-09-07T04:25:16;61.41;60.39;62.47;;
36217;Laerm;22259;48.792;8.964;2023-09-07T04:27:42;61.40;60.32;62.46;;
36217;Laerm;22259;48.792;8.964;2023-09-07T04:30:07;61.38;60.25;62.55;;
36217;Laerm;22259;48.792;8.964;2023-09-07T04:32:33;61.36;60.19;62.38;;
36217;Laerm;22259;48.792;8.964;2023-09-07T04:34:58;61.36;60.19;62.42;;
36217;Laerm;22259;48.792;8.964;2023-09-07T04:37:26;61.34;60.24;62.53;;
36217;Laerm;22259;48.792;8.964;2023-09-07T04:39:52;61.31;60.24;62.28;;
36217;Laerm;22259;48.792;8.964;2023-09-07T04:42:18;61.30;59.98;62.34;;
36217;Laerm;22259;48.792;8.964;2023-09-07T04:44:43;61.30;60.06;62.49;;
36217;Laerm;22259;48.792;8.964;2023-09-07T04:47:09;61.29;59.85;62.53;;
36217;Laerm;22259;48.792;8.964;2023-09-07T04:49:34;61.27;60.09;62.40;;
36217;Laerm;22259;48.792;8.964;2023-09-07T04:51:59;61.26;60.12;62.52;;
36217;Laerm;22259;48.792;8.964;2023-09-07T04:54:25;61.28;60.12;62.34;;
36217;Laerm;22259;48.792;8.964;2023-09-07T04:56:50;61.30;60.18;62.41;;
36217;Laerm;22259;48.792;8.964;2023-09-07T04:59:16;61.33;60.19;62.42;;
36217;Laerm;22259;48.792;8.964;2023-09-07T05:01:41;61.35;60.31;62.38;;
36217;Laerm;22259;48.792;8.964;2023-09-07T05:04:06;61.37;60.16;62.41;;
36217;Laerm;22259;48.792;8.964;2023-09-07T05:06:32;61.39;60.32;62.56;;
36217;Laerm;22259;48.792;8.964;2023-09-07T05:09:02;61.39;60.27;62.35;;
36217;Laerm;22259;48.792;8.964;2023-09-07T05:11:28;61.39;60.01;62.50;;
36217;Laerm;22259;48.792;8.964;2023-09-07T05:13:53;61.35;60.24;62.47;;
36217;Laerm;22259;48.792;8.964;2023-09-07T05:16:18;61.32;60.22;62.41;;
36217;Laerm;22259;48.792;8.964;2023-09-07T05:18:44;61.29;60.05;62.47;;
36217;Laerm;22259;48.792;8.964;2023-09-07T05:21:15;61.24;60.06;62.46;;
36217;Laerm;22259;48.792;8.964;2023-09-07T05:23:41;61.21;60.06;62.32;;
36217;Laerm;22259;48.792;8.964;2023-09-07T05:26:07;61.16;60.08;62.36;;
36217;Laerm;22259;48.792;8.964;2023-09-07T05:28:32;61.16;59.91;62.34;;
36217;Laerm;22259;48.792;8.964;2023-09-07T05:30:57;61.14;60.05;62.13;;
36217;Laerm;22259;48.792;8.964;2023-09-07T05:33:23;61.09;59.86;62.28;;
36217;Laerm;22259;48.792;8.964;2023-09-07T05:35:48;61.06;59.91;62.40;;
36217;Laerm;22259;48.792;8.964;2023-09-07T05:38:14;61.03;59.96;62.24;;
36217;Laerm;22259;48.792;8.964;2023-09-07T05:40:42;61.00;59.93;62.16;;
36217;Laerm;22259;48.792;8.964;2023-09-07T05:43:09;60.99;59.84;62.06;;
36217;Laerm;22259;48.792;8.964;2023-09-07T05:45:35;61.01;59.86;62.14;;
36217;Laerm;22259;48.792;8.964;2023-09-07T05:48:03;61.03;59.95;62.00;;
36217;Laerm;22259;48.792;8.964;2023-09-07T05:50:29;61.10;59.72;62.31;;
36217;Laerm;22259;48.792;8.964;2023-09-07T05:52:54;61.21;60.07;62.35;;
36217;Laerm;22259;48.792;8.964;2023-09-07T05:55:20;61.33;59.90;62.47;;
36217;Laerm;22259;48.792;8.964;2023-09-07T05:57:45;61.43;60.19;62.47;;
36217;Laerm;22259;48.792;8.964;2023-09-07T06:00:11;61.49;60.29;62.45;;
36217;Laerm;22259;48.792;8.964;2023-09-07T06:02:37;61.55;60.42;62.69;;
36217;Laerm;22259;48.792;8.964;2023-09-07T06:05:03;61.60;60.31;62.69;;
36217;Laerm;22259;48.792;8.964;2023-09-07T06:07:29;61.72;60.59;62.90;;
36217;Laerm;22259;48.792;8.964;2023-09-07T06:09:54;61.88;60.72;62.97;;
36217;Laerm;22259;48.792;8.964;2023-09-07T06:12:19;62.02;60.88;63.17;;
36217;Laerm;22259;48.792;8.964;2023-09-07T06:14:45;62.07;60.88;63.19;;
36217;Laerm;22259;48.792;8.964;2023-09-07T06:17:11;62.06;61.04;63.14;;
36217;Laerm;22259;48.792;8.964;2023-09-07T06:19:37;62.01;60.96;62.96;;
36217;Laerm;22259;48.792;8.964;2023-09-07T06:22:02;61.98;60.77;63.03;;
36217;Laerm;22259;48.792;8.964;2023-09-07T06:24:27;62.02;60.69;63.09;;
36217;Laerm;22259;48.792;8.964;2023-09-07T06:26:53;62.12;61.12;63.18;;
36217;Laerm;22259;48.792;8.964;2023-09-07T06:29:18;62.28;61.17;63.48;;
36217;Laerm;22259;48.792;8.964;2023-09-07T06:31:44;62.31;60.85;63.48;;
36217;Laerm;22259;48.792;8.964;2023-09-07T06:34:09;62.28;60.96;63.54;;
36217;Laerm;22259;48.792;8.964;2023-09-07T06:36:35;62.24;61.00;63.50;;
36217;Laerm;22259;48.792;8.964;2023-09-07T06:39:00;62.22;61.02;63.34;;
36217;Laerm;22259;48.792;8.964;2023-09-07T06:41:27;62.16;60.97;63.44;;
36217;Laerm;22259;48.792;8.964;2023-09-07T06:43:52;62.06;60.92;63.10;;
36217;Laerm;22259;48.792;8.964;2023-09-07T06:46:17;61.95;60.78;63.05;;
36217;Laerm;22259;48.792;8.964;2023-09-07T06:48:43;61.87;60.76;62.92;;
36217;Laerm;22259;48.792;8.964;2023-09-07T06:51:08;61.85;60.75;62.89;;
36217;Laerm;22259;48.792;8.964;2023-09-07T06:53:34;61.93;60.90;63.03;;
36217;Laerm;22259;48.792;8.964;2023-09-07T06:56:00;62.10;60.90;63.31;;
36217;Laerm;22259;48.792;8.964;2023-09-07T06:58:26;62.36;61.29;63.58;;
36217;Laerm;22259;48.792;8.964;2023-09-07T07:00:52;62.57;61.05;63.81;;
36217;Laerm;22259;48.792;8.964;2023-09-07T07:03:18;62.66;61.42;63.96;;
36217;Laerm;22259;48.792;8.964;2023-09-07T07:05:43;62.59;61.16;63.80;;
36217;Laerm;22259;48.792;8.964;2023-09-07T07:08:09;62.37;61.14;63.54;;
36217;Laerm;22259;48.792;8.964;2023-09-07T07:10:34;61.99;60.74;63.33;;
36217;Laerm;22259;48.792;8.964;2023-09-07T07:13:00;61.65;60.47;62.90;;
36217;Laerm;22259;48.792;8.964;2023-09-07T07:15:25;61.41;60.33;62.59;;
36217;Laerm;22259;48.792;8.964;2023-09-07T07:17:51;61.29;59.99;62.30;;
36217;Laerm;22259;48.792;8.964;2023-09-07T07:20:16;61.32;60.21;62.40;;
36217;Laerm;22259;48.792;8.964;2023-09-07T07:22:41;61.44;60.16;62.61;;
36217;Laerm;22259;48.792;8.964;2023-09-07T07:25:07;61.54;60.47;62.61;;
36217;Laerm;22259;48.792;8.964;2023-09-07T07:27:32;61.66;60.29;62.75;;
36217;Laerm;22259;48.792;8.964;2023-09-07T07:29:58;61.76;60.66;62.78;;
36217;Laerm;22259;48.792;8.964;2023-09-07T07:32:24;61.86;60.75;62.80;;
36217;Laerm;22259;48.792;8.964;2023-09-07T07:34:49;61.93;60.73;63.03;;
36217;Laerm;22259;48.792;8.964;2023-09-07T07:37:15;62.01;60.92;63.19;;
36217;Laerm;22259;48.792;8.964;2023-09-07T07:39:40;62.05;60.93;63.10;;
36217;Laerm;22259;48.792;8.964;2023-09-07T07:42:05;62.12;60.92;63.14;;
36217;Laerm;22259;48.792;8.964;2023-09-07T07:44:31;62.14;60.85;63.23;;
36217;Laerm;22259;48.792;8.964;2023-09-07T07:46:56;62.14;60.80;63.19;;
36217;Laerm;22259;48.792;8.964;2023-09-07T07:49:22;62.15;61.08;63.08;;
36217;Laerm;22259;48.792;8.964;2023-09-07T07:51:47;62.14;60.79;63.33;;
36217;Laerm;22259;48.792;8.964;2023-09-07T07:54:13;62.09;60.94;63.34;;
36217;Laerm;22259;48.792;8.964;2023-09-07T07:56:38;62.03;60.77;63.20;;
36217;Laerm;22259;48.792;8.964;2023-09-07T07:59:04;61.92;60.74;63.13;;
36217;Laerm;22259;48.792;8.964;2023-09-07T08:01:29;61.80;60.72;62.98;;
36217;Laerm;22259;48.792;8.964;2023-09-07T08:03:54;61.62;60.54;62.76;;
36217;Laerm;22259;48.792;8.964;2023-09-07T08:06:20;61.47;60.13;62.50;;
36217;Laerm;22259;48.792;8.964;2023-09-07T08:08:45;61.35;60.25;62.60;;
36217;Laerm;22259;48.792;8.964;2023-09-07T08:11:11;61.34;60.17;62.28;;
36217;Laerm;22259;48.792;8.964;2023-09-07T08:13:36;61.43;60.33;62.43;;
36217;Laerm;22259;48.792;8.964;2023-09-07T08:16:02;61.62;60.45;62.97;;
36217;Laerm;22259;48.792;8.964;2023-09-07T08:18:28;61.84;60.63;63.09;;
36217;Laerm;22259;48.792;8.964;2023-09-07T08:20:53;61.98;60.63;63.07;;
36217;Laerm;22259;48.792;8.964;2023-09-07T08:23:20;62.08;60.97;63.35;;
36217;Laerm;22259;48.792;8.964;2023-09-07T08:25:46;61.99;60.67;63.08;;
36217;Laerm;22259;48.792;8.964;2023-09-07T08:28:11;61.75;60.53;62.84;;
36217;Laerm;22259;48.792;8.964;2023-09-07T08:30:37;61.60;60.43;62.75;;
36217;Laerm;22259;48.792;8.964;2023-09-07T08:33:02;61.56;60.25;62.65;;
36217;Laerm;22259;48.792;8.964;2023-09-07T08:35:30;61.99;60.56;63.60;;
36217;Laerm;22259;48.792;8.964;2023-09-07T08:37:55;62.82;61.25;64.13;;
36217;Laerm;22259;48.792;8.964;2023-09-07T08:40:23;63.20;62.05;64.16;;
36217;Laerm;22259;48.792;8.964;2023-09-07T08:42:48;62.51;60.86;63.86;;
36217;Laerm;22259;48.792;8.964;2023-09-07T08:45:14;61.39;59.85;62.90;;
36217;Laerm;22259;48.792;8.964;2023-09-07T08:47:43;60.93;59.66;62.12;;
36217;Laerm;22259;48.792;8.964;2023-09-07T08:50:10;61.59;60.07;62.81;;
36217;Laerm;22259;48.792;8.964;2023-09-07T08:52:35;62.10;60.90;63.27;;
36217;Laerm;22259;48.792;8.964;2023-09-07T08:55:01;61.69;60.29;62.87;;
36217;Laerm;22259;48.792;8.964;2023-09-07T08:57:29;60.85;59.53;62.17;;
36217;Laerm;22259;48.792;8.964;2023-09-07T08:59:55;60.97;59.21;62.56;;
36217;Laerm;22259;48.792;8.964;2023-09-07T09:02:20;62.23;60.50;63.66;;
36217;Laerm;22259;48.792;8.964;2023-09-07T09:04:46;62.71;61.58;63.82;;
36217;Laerm;22259;48.792;8.964;2023-09-07T09:07:11;61.61;59.72;63.15;;
36217;Laerm;22259;48.792;8.964;2023-09-07T09:09:36;60.14;58.75;61.54;;
36217;Laerm;22259;48.792;8.964;2023-09-07T09:12:09;60.28;58.74;61.79;;
36217;Laerm;22259;48.792;8.964;2023-09-07T09:14:35;61.40;60.14;62.55;;
36217;Laerm;22259;48.792;8.964;2023-09-07T09:17:00;61.29;59.53;62.39;;
36217;Laerm;22259;48.792;8.964;2023-09-07T09:19:32;60.14;58.47;61.58;;
36217;Laerm;22259;48.792;8.964;2023-09-07T09:21:58;59.92;58.62;61.79;;
36217;Laerm;22259;48.792;8.964;2023-09-07T09:24:23;61.35;59.54;62.85;;
36217;Laerm;22259;48.792;8.964;2023-09-07T09:26:49;62.14;61.04;63.39;;
36217;Laerm;22259;48.792;8.964;2023-09-07T09:29:14;61.63;60.05;62.84;;
36217;Laerm;22259;48.792;8.964;2023-09-07T09:31:40;60.76;59.42;62.06;;
36217;Laerm;22259;48.792;8.964;2023-09-07T09:34:06;60.44;59.05;61.80;;
36217;Laerm;22259;48.792;8.964;2023-09-07T09:36:35;60.57;59.28;61.73;;
36217;Laerm;22259;48.792;8.964;2023-09-07T09:39:00;60.61;59.38;61.58;;
36217;Laerm;22259;48.792;8.964;2023-09-07T09:41:26;60.30;58.90;61.39;;
36217;Laerm;22259;48.792;8.964;2023-09-07T09:43:52;59.95;58.64;61.17;;
36217;Laerm;22259;48.792;8.964;2023-09-07T09:46:17;60.05;58.87;61.20;;
36217;Laerm;22259;48.792;8.964;2023-09-07T09:48:43;60.24;58.90;61.28;;
36217;Laerm;22259;48.792;8.964;2023-09-07T09:51:09;60.01;58.45;61.26;;
36217;Laerm;22259;48.792;8.964;2023-09-07T09:53:36;59.05;57.60;60.33;;
36217;Laerm;22259;48.792;8.964;2023-09-07T09:56:01;58.44;57.22;59.58;;
36217;Laerm;22259;48.792;8.964;2023-09-07T09:58:27;58.76;57.28;60.03;;
36217;Laerm;22259;48.792;8.964;2023-09-07T10:00:54;59.51;57.99;60.89;;
36217;Laerm;22259;48.792;8.964;2023-09-07T10:03:22;60.29;58.68;61.49;;
36217;Laerm;22259;48.792;8.964;2023-09-07T10:05:51;60.43;58.80;61.73;;
36217;Laerm;22259;48.792;8.964;2023-09-07T10:08:18;59.49;57.75;61.00;;
36217;Laerm;22259;48.792;8.964;2023-09-07T10:10:43;58.38;57.14;59.74;;
36217;Laerm;22259;48.792;8.964;2023-09-07T10:13:14;58.16;56.99;59.47;;
36217;Laerm;22259;48.792;8.964;2023-09-07T10:15:40;58.36;57.05;59.65;;
36217;Laerm;22259;48.792;8.964;2023-09-07T10:18:06;58.76;57.47;60.08;;
36217;Laerm;22259;48.792;8.964;2023-09-07T10:20:53;59.05;57.45;60.62;;
36217;Laerm;22259;48.792;8.964;2023-09-07T10:23:19;59.51;57.87;61.40;;
36217;Laerm;22259;48.792;8.964;2023-09-07T10:25:51;59.83;58.12;61.52;;
36217;Laerm;22259;48.792;8.964;2023-09-07T10:28:23;60.23;58.67;61.55;;
36217;Laerm;22259;48.792;8.964;2023-09-07T10:31:05;60.59;59.19;61.75;;
36217;Laerm;22259;48.792;8.964;2023-09-07T10:33:34;60.45;59.09;61.75;;
36217;Laerm;22259;48.792;8.964;2023-09-07T10:36:00;59.46;57.54;60.88;;
36217;Laerm;22259;48.792;8.964;2023-09-07T10:38:26;58.83;57.30;60.19;;
36217;Laerm;22259;48.792;8.964;2023-09-07T10:40:58;59.00;57.82;60.22;;
36217;Laerm;22259;48.792;8.964;2023-09-07T10:43:25;59.26;58.10;60.42;;
36217;Laerm;22259;48.792;8.964;2023-09-07T10:45:50;59.14;57.71;60.35;;
36217;Laerm;22259;48.792;8.964;2023-09-07T10:48:16;58.83;57.60;60.00;;
36217;Laerm;22259;48.792;8.964;2023-09-07T10:50:43;58.97;57.49;60.78;;
36217;Laerm;22259;48.792;8.964;2023-09-07T10:53:08;59.53;58.11;60.81;;
36217;Laerm;22259;48.792;8.964;2023-09-07T10:55:37;59.77;58.28;61.14;;
36217;Laerm;22259;48.792;8.964;2023-09-07T10:58:06;59.47;57.96;60.60;;
36217;Laerm;22259;48.792;8.964;2023-09-07T11:00:32;58.86;57.34;60.20;;
36217;Laerm;22259;48.792;8.964;2023-09-07T11:02:57;58.48;57.30;59.78;;
36217;Laerm;22259;48.792;8.964;2023-09-07T11:05:22;58.39;56.97;59.65;;
36217;Laerm;22259;48.792;8.964;2023-09-07T11:07:48;58.30;56.99;59.63;;
36217;Laerm;22259;48.792;8.964;2023-09-07T11:10:13;58.18;56.89;59.51;;
36217;Laerm;22259;48.792;8.964;2023-09-07T11:12:39;58.12;56.73;59.85;;
36217;Laerm;22259;48.792;8.964;2023-09-07T11:15:08;58.18;56.80;59.51;;
36217;Laerm;22259;48.792;8.964;2023-09-07T11:17:36;58.37;56.84;59.66;;
36217;Laerm;22259;48.792;8.964;2023-09-07T11:20:02;58.55;57.20;60.04;;
36217;Laerm;22259;48.792;8.964;2023-09-07T11:22:30;58.54;57.17;59.85;;
36217;Laerm;22259;48.792;8.964;2023-09-07T11:24:55;58.35;56.95;59.50;;
36217;Laerm;22259;48.792;8.964;2023-09-07T11:27:22;58.13;56.53;59.42;;
36217;Laerm;22259;48.792;8.964;2023-09-07T11:29:53;57.92;55.72;59.23;;
36217;Laerm;22259;48.792;8.964;2023-09-07T11:32:20;57.79;56.17;58.97;;
36217;Laerm;22259;48.792;8.964;2023-09-07T11:34:47;57.59;56.15;58.84;;
36217;Laerm;22259;48.792;8.964;2023-09-07T11:37:14;57.38;55.87;58.71;;
36217;Laerm;22259;48.792;8.964;2023-09-07T11:39:39;57.14;55.85;58.39;;
36217;Laerm;22259;48.792;8.964;2023-09-07T11:42:05;56.95;55.43;58.23;;
36217;Laerm;22259;48.792;8.964;2023-09-07T11:44:30;56.82;55.26;58.12;;
36217;Laerm;22259;48.792;8.964;2023-09-07T11:46:56;56.79;55.37;58.22;;
36217;Laerm;22259;48.792;8.964;2023-09-07T11:49:21;56.78;55.27;58.01;;
36217;Laerm;22259;48.792;8.964;2023-09-07T11:51:46;56.79;55.39;58.26;;
36217;Laerm;22259;48.792;8.964;2023-09-07T11:54:12;56.74;55.34;58.23;;
36217;Laerm;22259;48.792;8.964;2023-09-07T11:56:38;56.64;55.18;57.95;;
36217;Laerm;22259;48.792;8.964;2023-09-07T11:59:07;56.45;54.89;57.71;;
36217;Laerm;22259;48.792;8.964;2023-09-07T12:01:33;56.18;54.81;57.60;;
36217;Laerm;22259;48.792;8.964;2023-09-07T12:03:59;55.91;54.31;57.09;;
36217;Laerm;22259;48.792;8.964;2023-09-07T12:06:24;55.67;54.22;56.89;;
36217;Laerm;22259;48.792;8.964;2023-09-07T12:08:59;55.51;54.32;56.81;;
36217;Laerm;22259;48.792;8.964;2023-09-07T12:11:25;55.36;53.72;56.64;;
36217;Laerm;22259;48.792;8.964;2023-09-07T12:13:50;55.22;53.95;56.41;;
36217;Laerm;22259;48.792;8.964;2023-09-07T12:16:16;55.17;53.82;56.50;;
36217;Laerm;22259;48.792;8.964;2023-09-07T12:18:41;55.23;53.92;56.48;;
36217;Laerm;22259;48.792;8.964;2023-09-07T12:21:06;55.32;53.80;56.61;;
36217;Laerm;22259;48.792;8.964;2023-09-07T12:23:33;55.37;53.82;56.69;;
36217;Laerm;22259;48.792;8.964;2023-09-07T12:25:58;55.37;53.72;56.69;;
36217;Laerm;22259;48.792;8.964;2023-09-07T12:28:25;55.40;53.88;56.85;;
36217;Laerm;22259;48.792;8.964;2023-09-07T12:30:51;55.46;54.08;56.71;;
36217;Laerm;22259;48.792;8.964;2023-09-07T12:33:16;55.41;54.03;56.60;;
36217;Laerm;22259;48.792;8.964;2023-09-07T12:35:41;55.15;53.98;56.42;;
36217;Laerm;22259;48.792;8.964;2023-09-07T12:38:07;54.87;53.29;56.02;;
36217;Laerm;22259;48.792;8.964;2023-09-07T12:40:34;54.41;53.03;55.81;;
36217;Laerm;22259;48.792;8.964;2023-09-07T12:42:59;53.79;52.02;55.37;;
36217;Laerm;22259;48.792;8.964;2023-09-07T12:45:24;53.18;51.52;54.82;;
36217;Laerm;22259;48.792;8.964;2023-09-07T12:47:50;52.81;51.54;54.13;;
36217;Laerm;22259;48.792;8.964;2023-09-07T12:50:15;52.56;51.00;53.87;;
36217;Laerm;22259;48.792;8.964;2023-09-07T12:52:41;52.37;51.00;53.70;;
36217;Laerm;22259;48.792;8.964;2023-09-07T12:55:06;52.17;50.65;53.61;;
36217;Laerm;22259;48.792;8.964;2023-09-07T12:57:32;51.96;50.43;53.23;;
36217;Laerm;22259;48.792;8.964;2023-09-07T12:59:57;51.75;50.41;52.99;;
36217;Laerm;22259;48.792;8.964;2023-09-07T13:02:22;51.54;49.90;52.69;;
36217;Laerm;22259;48.792;8.964;2023-09-07T13:04:48;51.35;49.89;52.70;;
36217;Laerm;22259;48.792;8.964;2023-09-07T13:07:13;51.18;49.71;52.59;;
36217;Laerm;22259;48.792;8.964;2023-09-07T13:09:38;51.00;49.38;52.54;;
36217;Laerm;22259;48.792;8.964;2023-09-07T13:12:04;50.81;49.15;52.29;;
36217;Laerm;22259;48.792;8.964;2023-09-07T13:14:29;50.59;48.95;51.95;;
36217;Laerm;22259;48.792;8.964;2023-09-07T13:16:55;50.50;48.99;51.98;;
36217;Laerm;22259;48.792;8.964;2023-09-07T13:19:20;50.53;48.89;51.90;;
36217;Laerm;22259;48.792;8.964;2023-09-07T13:21:46;50.50;48.93;51.86;;
36217;Laerm;22259;48.792;8.964;2023-09-07T13:24:11;50.43;48.92;52.02;;
36217;Laerm;22259;48.792;8.964;2023-09-07T13:26:36;50.29;48.80;51.68;;
36217;Laerm;22259;48.792;8.964;2023-09-07T13:29:02;50.17;48.67;51.58;;
36217;Laerm;22259;48.792;8.964;2023-09-07T13:31:27;50.02;48.47;51.32;;
36217;Laerm;22259;48.792;8.964;2023-09-07T13:33:53;49.88;48.45;51.29;;
36217;Laerm;22259;48.792;8.964;2023-09-07T13:36:18;49.76;48.04;51.71;;
36217;Laerm;22259;48.792;8.964;2023-09-07T13:38:43;49.69;48.17;51.75;;
36217;Laerm;22259;48.792;8.964;2023-09-07T13:41:09;49.60;48.20;51.23;;
36217;Laerm;22259;48.792;8.964;2023-09-07T13:43:34;49.44;48.07;51.35;;